Terminal Aerodrome Forecast
Issued by NWS

Home | Current Version | Previous Version | Graphics & Text | Print | Product List | Glossary On
Versions: 1 2 3 4 5 6 7 8 9 10 11 12 13 14 15 16 17 18 19 20 21 22 23
000
FTUS43 KGRB 151100
TAFAUW
TAF
KAUW 151134Z 1512/1612 15004KT 1/4SM FG OVC003
     FM151500 16006KT 1/2SM FG OVC008
     FM151800 15007KT 1SM BR OVC012
      TEMPO 1518/1522 2SM -RA BR
     FM152200 12004KT 3SM -RA BR OVC012
     FM160200 09003KT 2SM -RA BR OVC009
     FM160700 35009KT 2SM -RASN BR OVC009=

USA.gov is the U.S. government's official web portal to all federal, state and local government web resources and services.